Terminal Aerodrome Forecast
Issued by NWS Mobile, AL

Home | Current Version | Previous Version | Text Only | Print | Product List | Glossary On
Versions: 1 2 3 4 5 6 7 8 9 10 11 12 13 14 15 16 17 18 19 20 21 22 23 24 25 26 27 28 29 30 31 32
000
FTUS44 KMOB 140541
TAFPNS
TAF
KPNS 140541Z 1406/1506 05006KT P6SM OVC200
     FM140900 03006KT P6SM BKN030 OVC120
     FM141600 01008KT P6SM -RA OVC030
     FM150300 36012KT 6SM BR FEW007 OVC020=

USA.gov is the U.S. government's official web portal to all federal, state and local government web resources and services.